Time;durP1;ratioP1;P1;durP2;ratioP2;P2;SDS_P1;SDS_P2;PMS_P1;PMS_P2;Temp;Humidity;BMP_temperature;BMP_pressure;BME280_temperature;BME280_humidity;BME280_pressure;Samples;Min_cycle;Max_cycle;Signal;HPM_P1;HPM_P2
2022/08/17 00:01:20;;;;;;;3.90;3.20;;;17.70;99.90;;;;;;5069596;28;20482;-48
2022/08/17 00:03:49;;;;;;;3.23;2.93;;;17.70;99.90;;;;;;5069499;28;20448;-49
2022/08/17 00:06:18;;;;;;;3.60;3.17;;;17.60;99.90;;;;;;5069544;28;20502;-48
2022/08/17 00:08:47;;;;;;;6.13;3.70;;;17.60;99.90;;;;;;5069281;28;20444;-49
2022/08/17 00:11:18;;;;;;;4.50;3.17;;;17.60;99.90;;;;;;5069485;28;20448;-49
2022/08/17 00:13:47;;;;;;;4.30;3.10;;;17.60;99.90;;;;;;5069536;28;20498;-50
2022/08/17 00:16:19;;;;;;;3.40;2.90;;;17.80;99.90;;;;;;5068963;28;20449;-49
2022/08/17 00:18:46;;;;;;;3.43;2.80;;;17.80;99.90;;;;;;5068644;28;20490;-49
2022/08/17 00:21:16;;;;;;;3.60;3.30;;;18.00;99.90;;;;;;5069069;28;20472;-49
2022/08/17 00:23:44;;;;;;;4.73;3.20;;;17.90;99.90;;;;;;5069365;28;20444;-48
2022/08/17 00:26:12;;;;;;;3.87;3.03;;;17.60;99.90;;;;;;5069147;28;20440;-48
2022/08/17 00:28:40;;;;;;;4.13;3.13;;;17.50;99.90;;;;;;5069228;28;20882;-51
2022/08/17 00:31:08;;;;;;;3.90;3.50;;;17.90;99.90;;;;;;5072760;28;21049;-48
2022/08/17 00:33:36;;;;;;;4.37;3.50;;;17.60;99.90;;;;;;5072935;28;20490;-50
2022/08/17 00:36:06;;;;;;;3.53;3.23;;;17.50;99.90;;;;;;5072988;28;20528;-48
2022/08/17 00:38:34;;;;;;;3.97;3.10;;;17.30;99.90;;;;;;5072944;28;20440;-48
2022/08/17 00:41:06;;;;;;;4.20;3.30;;;17.30;99.90;;;;;;5072738;28;20471;-48
2022/08/17 00:43:36;;;;;;;3.60;3.30;;;17.20;99.90;;;;;;5072616;28;20727;-48
2022/08/17 00:46:08;;;;;;;4.27;3.40;;;17.40;99.90;;;;;;5072744;28;20444;-49
2022/08/17 00:48:36;;;;;;;3.50;3.07;;;17.60;99.90;;;;;;5072535;28;20814;-49
2022/08/17 00:51:09;;;;;;;3.70;3.27;;;17.70;99.90;;;;;;5072419;28;20472;-49
2022/08/17 00:53:39;;;;;;;3.57;3.27;;;17.70;99.90;;;;;;5072680;28;20933;-48
2022/08/17 00:56:14;;;;;;;3.83;3.53;;;17.60;99.90;;;;;;5072340;28;20953;-48
2022/08/17 00:58:41;;;;;;;4.13;3.30;;;17.70;99.90;;;;;;5072538;28;20475;-48
2022/08/17 01:01:12;;;;;;;3.70;3.00;;;17.70;99.90;;;;;;5072268;28;20533;-47
2022/08/17 01:03:40;;;;;;;3.47;2.70;;;17.40;99.90;;;;;;5072270;28;20888;-51
2022/08/17 01:06:08;;;;;;;3.63;3.33;;;17.10;99.90;;;;;;5072418;28;20444;-49
2022/08/17 01:08:37;;;;;;;3.60;3.30;;;17.20;99.90;;;;;;5072283;28;20462;-48
2022/08/17 01:11:05;;;;;;;3.67;3.37;;;17.30;99.90;;;;;;5071968;28;20445;-48
2022/08/17 01:13:36;;;;;;;4.57;4.13;;;17.50;99.90;;;;;;5072157;28;20433;-49
2022/08/17 01:16:06;;;;;;;4.27;3.40;;;17.50;99.90;;;;;;5072308;28;20449;-50
2022/08/17 01:18:35;;;;;;;6.20;3.70;;;17.40;99.90;;;;;;5072421;28;20472;-49
2022/08/17 01:21:09;;;;;;;4.17;3.10;;;17.30;99.90;;;;;;5071737;28;20472;-48
2022/08/17 01:23:38;;;;;;;3.67;3.37;;;17.20;99.90;;;;;;5072062;28;20448;-48
2022/08/17 01:26:05;;;;;;;3.43;3.13;;;17.30;99.90;;;;;;5071934;28;20465;-48
2022/08/17 01:28:34;;;;;;;3.20;2.73;;;17.00;99.90;;;;;;5071802;28;21040;-49
2022/08/17 01:31:04;;;;;;;3.37;3.07;;;17.10;99.90;;;;;;5071604;28;20498;-48
2022/08/17 01:33:32;;;;;;;4.10;3.70;;;17.10;99.90;;;;;;5071859;28;20448;-49
2022/08/17 01:36:00;;;;;;;4.47;3.63;;;17.10;99.90;;;;;;5071655;28;20437;-48
2022/08/17 01:38:30;;;;;;;3.83;3.27;;;17.10;99.90;;;;;;5071629;28;20809;-48
2022/08/17 01:41:03;;;;;;;3.87;3.30;;;17.00;99.90;;;;;;5070831;28;20829;-50
2022/08/17 01:43:34;;;;;;;4.40;3.77;;;16.80;99.90;;;;;;5071804;28;20448;-48
2022/08/17 01:46:03;;;;;;;4.60;3.07;;;17.00;99.90;;;;;;5071641;28;20456;-48
2022/08/17 01:48:32;;;;;;;6.27;3.20;;;17.10;99.90;;;;;;5071512;28;20448;-51
2022/08/17 01:50:59;;;;;;;5.27;3.80;;;17.30;99.90;;;;;;5071403;28;21173;-48
2022/08/17 01:53:29;;;;;;;5.37;3.13;;;17.10;99.90;;;;;;5071491;28;20469;-47
2022/08/17 01:56:01;;;;;;;3.70;3.40;;;17.00;99.90;;;;;;5071322;28;20436;-48
2022/08/17 01:58:28;;;;;;;4.30;3.27;;;17.40;99.90;;;;;;5071189;28;20431;-48
2022/08/17 02:00:55;;;;;;;3.73;3.23;;;17.30;99.90;;;;;;5071073;28;20518;-48
2022/08/17 02:03:24;;;;;;;3.90;3.60;;;16.90;99.90;;;;;;5071198;28;20502;-48
2022/08/17 02:05:52;;;;;;;4.57;3.50;;;16.90;99.90;;;;;;5071222;28;20448;-49
2022/08/17 02:08:20;;;;;;;5.87;3.70;;;16.70;99.90;;;;;;5071100;28;20437;-49
2022/08/17 02:10:48;;;;;;;4.73;3.23;;;16.30;99.90;;;;;;5070753;28;20575;-49
2022/08/17 02:13:18;;;;;;;8.00;4.77;;;16.40;99.90;;;;;;5070987;28;20444;-49
2022/08/17 02:15:45;;;;;;;3.93;3.53;;;16.40;99.90;;;;;;5071153;28;20527;-48
2022/08/17 02:18:15;;;;;;;3.57;3.00;;;16.60;99.90;;;;;;5070981;28;20440;-47
2022/08/17 02:20:43;;;;;;;5.50;3.50;;;16.80;99.90;;;;;;5070638;28;20476;-48
2022/08/17 02:23:12;;;;;;;4.90;3.67;;;16.80;99.90;;;;;;5070680;28;20710;-51
2022/08/17 02:25:42;;;;;;;4.63;4.23;;;16.90;99.90;;;;;;5070704;28;20515;-49
2022/08/17 02:28:09;;;;;;;6.50;3.70;;;16.70;99.90;;;;;;5071035;28;20437;-47
2022/08/17 02:30:38;;;;;;;3.97;3.57;;;16.90;99.90;;;;;;5070360;28;20487;-50
2022/08/17 02:33:05;;;;;;;3.33;3.03;;;16.90;99.90;;;;;;5070609;28;20517;-48
2022/08/17 02:35:32;;;;;;;4.90;3.23;;;17.00;99.90;;;;;;5070599;28;20417;-48
2022/08/17 02:38:00;;;;;;;4.40;4.00;;;16.90;99.90;;;;;;5070382;28;20842;-49
2022/08/17 02:40:27;;;;;;;3.93;3.53;;;16.30;99.90;;;;;;5070329;28;20464;-50
2022/08/17 02:42:54;;;;;;;4.13;3.30;;;16.30;99.90;;;;;;5070020;28;20984;-48
2022/08/17 02:45:23;;;;;;;4.10;3.70;;;16.60;99.90;;;;;;5070463;28;20543;-50
2022/08/17 02:47:53;;;;;;;5.80;3.50;;;16.70;99.90;;;;;;5070232;28;20478;-47
2022/08/17 02:50:22;;;;;;;3.80;3.40;;;16.70;99.90;;;;;;5070033;28;20989;-48
2022/08/17 02:52:50;;;;;;;3.50;3.20;;;16.70;99.90;;;;;;5069481;28;20443;-48
2022/08/17 02:55:20;;;;;;;7.63;3.83;;;16.80;99.90;;;;;;5070267;28;20820;-48
2022/08/17 02:57:48;;;;;;;7.63;4.43;;;16.60;99.90;;;;;;5070386;28;20536;-47
2022/08/17 03:00:20;;;;;;;5.80;4.30;;;16.40;99.90;;;;;;5069940;28;20469;-48
2022/08/17 03:02:47;;;;;;;5.30;4.33;;;16.30;99.90;;;;;;5070024;28;20553;-48
2022/08/17 03:05:18;;;;;;;5.93;5.37;;;16.40;99.90;;;;;;5070205;28;20444;-48
2022/08/17 03:07:45;;;;;;;5.73;3.73;;;16.50;99.90;;;;;;5070291;28;20444;-49
2022/08/17 03:10:13;;;;;;;4.27;3.37;;;16.70;99.90;;;;;;5069751;28;20538;-49
2022/08/17 03:12:42;;;;;;;5.50;3.67;;;16.80;99.90;;;;;;5070097;28;20432;-48
2022/08/17 03:15:12;;;;;;;4.90;3.83;;;16.70;99.90;;;;;;5069811;28;20452;-47
2022/08/17 03:17:39;;;;;;;3.87;3.57;;;16.50;99.90;;;;;;5070306;28;20466;-49
2022/08/17 03:20:07;;;;;;;4.13;3.63;;;16.60;99.90;;;;;;5070111;28;20480;-48
2022/08/17 03:22:38;;;;;;;6.30;4.10;;;16.60;99.90;;;;;;5069711;28;20478;-47
2022/08/17 03:25:08;;;;;;;4.60;3.80;;;16.30;99.90;;;;;;5069961;28;20464;-49
2022/08/17 03:27:35;;;;;;;4.57;3.87;;;16.50;99.90;;;;;;5069518;28;20546;-47
2022/08/17 03:30:02;;;;;;;5.50;3.93;;;16.10;99.90;;;;;;5089684;22;20489;-49
2022/08/17 03:32:29;;;;;;;4.03;3.60;;;15.90;99.90;;;;;;5049877;28;20449;-49
2022/08/17 03:34:59;;;;;;;4.63;4.03;;;15.90;99.90;;;;;;5049805;28;20938;-49
2022/08/17 03:37:26;;;;;;;4.33;3.93;;;16.00;99.90;;;;;;5049884;28;20544;-49
2022/08/17 03:39:54;;;;;;;4.47;4.10;;;16.10;99.90;;;;;;5049847;28;20614;-48
2022/08/17 03:42:24;;;;;;;4.50;4.10;;;16.50;99.90;;;;;;5049542;28;20477;-48
2022/08/17 03:44:52;;;;;;;4.80;3.80;;;16.40;99.90;;;;;;5049668;28;20461;-49
2022/08/17 03:58:22;;;;;;;5.40;4.37;;;15.90;99.90;;;;;;5049716;28;20429;-49
2022/08/17 04:00:49;;;;;;;7.33;4.40;;;16.10;99.90;;;;;;5050371;28;20965;-47
2022/08/17 04:03:17;;;;;;;4.47;3.33;;;15.70;99.90;;;;;;5049502;28;20890;-49
2022/08/17 04:05:44;;;;;;;6.67;4.30;;;15.80;99.90;;;;;;5053341;28;20942;-48
2022/08/17 04:08:11;;;;;;;5.00;4.50;;;16.00;99.90;;;;;;5053543;28;20938;-49
2022/08/17 04:10:40;;;;;;;4.20;3.80;;;16.20;99.90;;;;;;5053448;28;20450;-49
2022/08/17 04:13:07;;;;;;;4.63;4.23;;;16.30;99.90;;;;;;5053242;28;20452;-49
2022/08/17 04:15:34;;;;;;;4.53;4.10;;;16.50;99.90;;;;;;5053284;28;20437;-49
2022/08/17 04:18:01;;;;;;;4.10;3.70;;;16.70;99.90;;;;;;5053355;28;20445;-49
2022/08/17 04:20:28;;;;;;;5.83;4.50;;;16.50;99.90;;;;;;5053377;28;20511;-49
2022/08/17 04:22:57;;;;;;;4.90;3.90;;;16.50;99.90;;;;;;5053347;28;20468;-50
2022/08/17 04:25:26;;;;;;;4.43;4.00;;;16.10;99.90;;;;;;5053090;28;21011;-49
2022/08/17 04:27:54;;;;;;;4.80;4.30;;;16.10;99.90;;;;;;5052952;28;20437;-49
2022/08/17 04:30:22;;;;;;;4.87;4.17;;;16.30;99.90;;;;;;5052726;28;20477;-48
2022/08/17 04:32:54;;;;;;;4.83;4.40;;;16.00;99.90;;;;;;5052940;28;20592;-49
2022/08/17 04:35:24;;;;;;;6.10;3.87;;;16.10;99.90;;;;;;5052892;28;20433;-48
2022/08/17 04:37:52;;;;;;;4.83;4.00;;;15.80;99.90;;;;;;5053035;28;20449;-49
2022/08/17 04:43:09;;;;;;;4.43;4.00;;;16.30;99.90;;;;;;5052475;28;20843;-51
2022/08/17 04:45:40;;;;;;;4.93;4.50;;;16.60;99.90;;;;;;5052807;28;20830;-48
2022/08/17 04:48:07;;;;;;;4.50;4.10;;;16.50;99.90;;;;;;5052500;28;20429;-49
2022/08/17 04:50:35;;;;;;;4.73;4.30;;;16.60;99.90;;;;;;5052433;28;20461;-49
2022/08/17 04:53:03;;;;;;;6.37;4.70;;;16.10;99.90;;;;;;5052693;28;20453;-48
2022/08/17 04:55:30;;;;;;;5.47;4.83;;;15.50;99.90;;;;;;5052632;28;20458;-49
2022/08/17 04:57:57;;;;;;;4.87;4.47;;;15.80;99.90;;;;;;5052543;28;20958;-49
2022/08/17 05:00:26;;;;;;;5.50;5.00;;;16.00;99.90;;;;;;5052202;28;20457;-49
2022/08/17 05:02:55;;;;;;;7.53;4.10;;;15.70;99.90;;;;;;5052349;28;20485;-49
2022/08/17 05:05:24;;;;;;;4.97;4.00;;;15.70;99.90;;;;;;5052355;28;20442;-49
2022/08/17 05:07:53;;;;;;;5.23;4.40;;;15.90;99.90;;;;;;5052600;28;20436;-49
2022/08/17 05:10:20;;;;;;;6.27;4.60;;;16.00;99.90;;;;;;5052122;28;20473;-49
2022/08/17 05:12:47;;;;;;;4.20;3.80;;;16.00;99.90;;;;;;5052166;28;20797;-49
2022/08/17 05:15:15;;;;;;;5.43;4.67;;;16.10;99.90;;;;;;5051675;28;20449;-49
2022/08/17 05:17:43;;;;;;;4.47;4.07;;;16.50;99.90;;;;;;5051785;28;20433;-49
2022/08/17 05:20:11;;;;;;;8.73;4.90;;;16.50;99.90;;;;;;5051987;28;20464;-49
2022/08/17 05:22:48;;;;;;;4.93;4.50;;;16.40;99.90;;;;;;5051911;28;20959;-48
2022/08/17 05:25:17;;;;;;;6.20;4.57;;;16.30;99.90;;;;;;5051956;28;20433;-49
2022/08/17 05:27:44;;;;;;;6.00;4.40;;;16.30;99.90;;;;;;5051584;28;20825;-49
2022/08/17 05:30:13;;;;;;;5.70;5.00;;;16.20;99.90;;;;;;5051629;28;20474;-48
2022/08/17 05:32:49;;;;;;;8.77;5.30;;;16.20;99.90;;;;;;5052062;28;20430;-49
2022/08/17 05:35:18;;;;;;;5.23;4.73;;;16.10;99.90;;;;;;5052150;28;20962;-49
2022/08/17 05:37:45;;;;;;;5.93;5.10;;;16.00;99.90;;;;;;5051916;28;21002;-48
2022/08/17 05:40:13;;;;;;;4.87;4.37;;;16.10;99.90;;;;;;5051436;28;20465;-48
2022/08/17 05:42:40;;;;;;;7.20;4.30;;;16.40;99.90;;;;;;5051381;28;21029;-48
2022/08/17 05:45:08;;;;;;;4.63;4.13;;;16.60;99.90;;;;;;5051771;28;20609;-48
2022/08/17 05:47:37;;;;;;;6.33;4.90;;;16.50;99.90;;;;;;5051854;28;20448;-49
2022/08/17 05:50:07;;;;;;;5.00;4.60;;;16.50;99.90;;;;;;5051101;28;20523;-48
2022/08/17 05:52:42;;;;;;;5.67;4.90;;;16.40;99.90;;;;;;5051590;28;20503;-49
2022/08/17 05:55:19;;;;;;;6.93;5.17;;;16.30;99.90;;;;;;5051424;28;20440;-50
2022/08/17 05:57:58;;;;;;;5.03;4.30;;;16.40;99.90;;;;;;5051394;28;20429;-49
2022/08/17 06:00:28;;;;;;;5.30;4.80;;;16.20;99.90;;;;;;5050978;28;20453;-49
2022/08/17 06:03:09;;;;;;;5.60;4.50;;;16.10;99.90;;;;;;5051508;28;20534;-47
2022/08/17 06:05:54;;;;;;;5.37;4.80;;;16.30;99.90;;;;;;5051301;28;20766;-48
2022/08/17 06:08:31;;;;;;;5.70;4.87;;;16.10;99.90;;;;;;5051434;28;20469;-49
2022/08/17 06:11:09;;;;;;;6.73;5.80;;;15.60;99.90;;;;;;5050759;28;20499;-50
2022/08/17 06:13:57;;;;;;;5.57;5.07;;;16.00;99.90;;;;;;5051264;28;20498;-48
2022/08/17 06:16:30;;;;;;;7.23;5.53;;;16.20;99.90;;;;;;5051068;28;20464;-50
2022/08/17 06:19:00;;;;;;;5.10;4.70;;;16.30;99.90;;;;;;5050756;28;20465;-49
2022/08/17 06:21:32;;;;;;;5.53;5.03;;;16.50;99.90;;;;;;5050892;28;20453;-49
2022/08/17 06:24:05;;;;;;;5.33;4.73;;;16.60;99.90;;;;;;5051051;28;20886;-48
2022/08/17 06:26:36;;;;;;;5.67;5.10;;;16.80;99.90;;;;;;5050478;28;20449;-49
2022/08/17 06:29:07;;;;;;;5.37;4.83;;;16.60;99.90;;;;;;5051125;28;21175;-49
2022/08/17 06:31:37;;;;;;;6.20;5.40;;;16.20;99.90;;;;;;5051055;28;20508;-49
2022/08/17 06:34:08;;;;;;;5.63;5.13;;;16.40;99.90;;;;;;5051169;28;20487;-49
2022/08/17 06:36:48;;;;;;;5.27;4.80;;;16.50;99.90;;;;;;5051076;28;20472;-50
2022/08/17 06:39:30;;;;;;;5.67;5.17;;;16.40;99.90;;;;;;5050752;28;20457;-49
2022/08/17 06:42:08;;;;;;;5.83;5.23;;;16.50;99.90;;;;;;5052103;28;20456;-51
2022/08/17 06:44:40;;;;;;;5.67;5.00;;;16.60;99.90;;;;;;5052147;28;20500;-49
2022/08/17 06:47:12;;;;;;;4.87;4.47;;;17.00;99.90;;;;;;5051668;28;20792;-49
2022/08/17 06:49:46;;;;;;;5.30;4.90;;;17.30;99.90;;;;;;5051036;28;20429;-49
2022/08/17 06:52:21;;;;;;;5.50;5.00;;;17.30;99.90;;;;;;5051365;28;20433;-50
2022/08/17 06:54:59;;;;;;;6.03;5.43;;;17.60;99.90;;;;;;5051366;28;20429;-49
2022/08/17 06:57:28;;;;;;;5.70;5.20;;;17.40;99.90;;;;;;5050782;28;20861;-49
2022/08/17 06:59:59;;;;;;;7.60;5.80;;;17.20;99.90;;;;;;5050134;28;20469;-50
2022/08/17 07:02:46;;;;;;;7.50;5.47;;;17.20;99.90;;;;;;5050266;28;20429;-49
2022/08/17 07:05:16;;;;;;;8.47;5.43;;;17.50;99.90;;;;;;5050447;28;20491;-50
2022/08/17 07:08:04;;;;;;;7.30;4.70;;;17.50;99.90;;;;;;5050385;28;20449;-51
2022/08/17 07:10:37;;;;;;;5.77;5.27;;;17.70;99.90;;;;;;5049884;28;20502;-49
2022/08/17 07:13:29;;;;;;;5.80;5.30;;;17.90;99.90;;;;;;5050207;28;20495;-50
2022/08/17 07:16:13;;;;;;;6.73;5.30;;;18.10;99.90;;;;;;5050084;28;20464;-49
2022/08/17 07:18:40;;;;;;;6.03;5.53;;;17.90;99.90;;;;;;5049969;28;20942;-49
2022/08/17 07:21:22;;;;;;;8.47;5.50;;;18.00;99.90;;;;;;5049707;28;20870;-49
2022/08/17 07:24:01;;;;;;;5.40;4.90;;;18.30;99.90;;;;;;5049755;28;21076;-50
2022/08/17 07:26:29;;;;;;;5.33;4.83;;;18.60;99.90;;;;;;5049507;28;20449;-50
2022/08/17 07:28:57;;;;;;;6.43;5.43;;;18.60;99.90;;;;;;5049573;28;20556;-50
2022/08/17 07:31:26;;;;;;;10.33;5.20;;;18.70;99.90;;;;;;5049597;28;20534;-50
2022/08/17 07:34:05;;;;;;;5.40;4.90;;;18.80;99.90;;;;;;5049679;28;20445;-50
2022/08/17 07:36:33;;;;;;;6.23;4.90;;;18.90;99.90;;;;;;5049725;28;20433;-51
2022/08/17 07:39:02;;;;;;;5.60;5.10;;;18.90;99.90;;;;;;5049118;28;20445;-50
2022/08/17 07:41:35;;;;;;;5.20;4.70;;;18.80;99.90;;;;;;5049701;28;20454;-50
2022/08/17 07:44:02;;;;;;;5.20;4.70;;;19.00;99.90;;;;;;5049342;28;20522;-50
2022/08/17 07:49:33;;;;;;;7.03;5.53;;;19.20;99.90;;;;;;5049260;28;20547;-50
2022/08/17 07:52:04;;;;;;;5.00;4.50;;;19.30;99.90;;;;;;5049623;28;20453;-49
2022/08/17 07:54:35;;;;;;;5.20;4.63;;;19.40;99.90;;;;;;5049592;28;20461;-50
2022/08/17 07:57:28;;;;;;;4.77;4.33;;;19.50;99.90;;;;;;5049570;28;20468;-50
2022/08/17 08:00:14;;;;;;;7.47;5.53;;;19.60;99.90;;;;;;5049644;28;20500;-52
2022/08/17 08:02:44;;;;;;;5.60;5.10;;;19.60;99.90;;;;;;5049555;28;20491;-51
2022/08/17 08:05:17;;;;;;;6.07;5.47;;;19.60;99.90;;;;;;5049595;28;20686;-50
2022/08/17 08:07:53;;;;;;;5.23;4.80;;;19.60;99.90;;;;;;5049713;28;20460;-50
2022/08/17 08:10:28;;;;;;;5.37;4.97;;;19.90;99.90;;;;;;5049222;28;20473;-50
2022/08/17 08:13:07;;;;;;;6.00;5.23;;;20.10;99.90;;;;;;5049373;28;20650;-50
2022/08/17 08:15:38;;;;;;;7.03;5.97;;;20.20;99.90;;;;;;5049453;28;20449;-50
2022/08/17 08:18:21;;;;;;;5.70;5.13;;;20.30;99.90;;;;;;5049312;28;20433;-50
2022/08/17 08:20:51;;;;;;;6.30;5.63;;;20.20;99.90;;;;;;5049098;28;20465;-52
2022/08/17 08:23:30;;;;;;;6.17;5.57;;;20.40;99.90;;;;;;5049163;28;20477;-50
2022/08/17 08:26:10;;;;;;;5.87;5.13;;;20.40;99.90;;;;;;5049067;28;20505;-50
2022/08/17 08:28:45;;;;;;;7.13;6.03;;;20.60;99.90;;;;;;5049338;28;20437;-51
2022/08/17 08:31:24;;;;;;;6.47;4.93;;;20.70;99.90;;;;;;5049100;28;20472;-50
2022/08/17 08:34:06;;;;;;;5.97;5.40;;;20.80;99.90;;;;;;5049238;28;20446;-52
2022/08/17 08:36:47;;;;;;;6.63;6.03;;;20.80;99.90;;;;;;5049230;28;20454;-50
2022/08/17 08:39:20;;;;;;;5.33;4.80;;;20.80;99.90;;;;;;5048951;28;20496;-51
2022/08/17 08:41:57;;;;;;;5.90;5.40;;;21.00;99.90;;;;;;5049161;28;20469;-52
2022/08/17 08:44:46;;;;;;;6.27;5.30;;;21.20;99.90;;;;;;5048954;28;20468;-50
2022/08/17 08:47:19;;;;;;;5.97;5.37;;;21.20;99.90;;;;;;5049193;28;20453;-50
2022/08/17 08:50:10;;;;;;;6.33;5.70;;;21.20;99.90;;;;;;5048581;28;20456;-51
2022/08/17 08:52:54;;;;;;;5.83;5.23;;;21.40;99.90;;;;;;5052294;28;20457;-51
2022/08/17 08:55:31;;;;;;;5.60;5.00;;;21.60;99.90;;;;;;5052683;28;20495;-50
2022/08/17 08:58:02;;;;;;;6.23;5.07;;;21.80;99.90;;;;;;5052691;28;20510;-51
2022/08/17 09:00:34;;;;;;;5.30;4.90;;;21.70;99.90;;;;;;5052185;28;20789;-51
2022/08/17 09:03:22;;;;;;;5.33;4.83;;;21.70;99.90;;;;;;5052609;28;20519;-50
2022/08/17 09:06:01;;;;;;;5.97;5.37;;;21.80;99.90;;;;;;5052402;28;20959;-51
2022/08/17 09:08:44;;;;;;;4.90;4.40;;;21.90;99.90;;;;;;5052326;28;20520;-50
2022/08/17 09:11:21;;;;;;;5.60;5.17;;;22.00;99.90;;;;;;5052314;28;20484;-49
2022/08/17 09:14:00;;;;;;;6.17;5.53;;;22.20;99.90;;;;;;5052457;28;20433;-50
2022/08/17 09:16:34;;;;;;;7.13;5.10;;;22.30;99.90;;;;;;5052274;28;20453;-51
2022/08/17 09:19:09;;;;;;;6.07;5.57;;;22.40;99.90;;;;;;5052527;28;20958;-52
2022/08/17 09:21:42;;;;;;;7.67;7.00;;;22.60;99.90;;;;;;5052311;28;20845;-50
2022/08/17 09:24:16;;;;;;;7.07;6.47;;;22.60;99.90;;;;;;5051961;28;20989;-51
2022/08/17 09:26:50;;;;;;;5.70;5.00;;;22.40;99.90;;;;;;5051624;28;20429;-50
2022/08/17 09:29:23;;;;;;;5.83;5.33;;;22.40;99.90;;;;;;5051846;28;20457;-50
2022/08/17 09:31:55;;;;;;;5.40;4.80;;;22.50;99.90;;;;;;5077523;22;20497;-50
2022/08/17 09:34:31;;;;;;;6.83;4.70;;;22.60;99.90;;;;;;5051868;28;20491;-51
2022/08/17 09:37:07;;;;;;;6.10;5.60;;;22.60;99.90;;;;;;5051901;28;20498;-51
2022/08/17 09:39:41;;;;;;;7.93;5.80;;;22.90;99.90;;;;;;5051555;28;20437;-49
2022/08/17 09:42:18;;;;;;;5.93;5.43;;;23.00;99.90;;;;;;5051596;28;20543;-49
2022/08/17 09:44:55;;;;;;;5.93;5.10;;;22.90;99.90;;;;;;5051617;28;20985;-52
2022/08/17 09:47:30;;;;;;;7.60;5.73;;;22.90;99.90;;;;;;5051700;28;20544;-51
2022/08/17 09:50:03;;;;;;;5.60;5.00;;;22.80;99.90;;;;;;5051576;28;20506;-49
2022/08/17 09:52:31;;;;;;;8.10;5.97;;;23.00;99.90;;;;;;5051398;28;20495;-50
2022/08/17 09:55:00;;;;;;;6.10;5.60;;;22.90;99.90;;;;;;5051800;28;20453;-49
2022/08/17 09:57:39;;;;;;;6.20;5.60;;;22.90;99.90;;;;;;5051461;28;20477;-50
2022/08/17 10:00:18;;;;;;;5.70;5.20;;;23.00;99.90;;;;;;5051608;28;20433;-49
2022/08/17 10:03:15;;;;;;;5.23;4.73;;;23.20;99.90;;;;;;5051001;28;20438;-49
2022/08/17 10:05:50;;;;;;;5.27;4.73;;;23.20;99.90;;;;;;5050963;28;20833;-49
2022/08/17 10:08:26;;;;;;;6.50;5.57;;;23.30;99.90;;;;;;5051299;28;20453;-51
2022/08/17 10:11:05;;;;;;;6.70;5.60;;;23.60;99.90;;;;;;5050775;28;20468;-50
2022/08/17 10:13:40;;;;;;;6.17;5.57;;;23.80;99.90;;;;;;5051082;28;20469;-49
2022/08/17 10:16:18;;;;;;;6.47;5.87;;;23.90;99.90;;;;;;5051262;28;20448;-49
2022/08/17 10:18:56;;;;;;;5.80;5.13;;;24.00;99.90;;;;;;5050962;28;20510;-51
2022/08/17 10:27:04;;;;;;;5.67;5.10;;;24.40;99.90;;;;;;5050540;28;20965;-49
2022/08/17 10:29:34;;;;;;;6.13;5.60;;;24.40;99.90;;;;;;5050372;28;20488;-49
2022/08/17 10:32:07;;;;;;;6.70;5.77;;;24.50;99.90;;;;;;5050600;28;20489;-49
2022/08/17 10:34:51;;;;;;;8.60;5.23;;;24.50;99.90;;;;;;5050511;28;20437;-49
2022/08/17 10:37:45;;;;;;;5.60;5.00;;;24.70;99.90;;;;;;5050617;28;20820;-51
2022/08/17 10:40:31;;;;;;;9.13;5.83;;;24.60;99.90;;;;;;5047105;28;20885;-50
2022/08/17 10:43:02;;;;;;;5.97;5.37;;;24.70;99.90;;;;;;5048413;28;20442;-50
2022/08/17 10:45:35;;;;;;;6.13;5.53;;;24.80;99.90;;;;;;5049868;28;20470;-52
2022/08/17 10:48:26;;;;;;;5.70;5.20;;;24.80;99.90;;;;;;5050037;28;20449;-49
2022/08/17 10:51:07;;;;;;;7.50;6.50;;;24.90;99.90;;;;;;5047293;28;20492;-49
2022/08/17 10:53:50;;;;;;;5.80;5.30;;;24.90;99.90;;;;;;5050246;28;20986;-49
2022/08/17 10:56:20;;;;;;;6.27;5.67;;;25.00;99.90;;;;;;5047743;28;20445;-49
2022/08/17 10:58:49;;;;;;;6.07;5.57;;;24.90;99.90;;;;;;5049915;28;20437;-49
2022/08/17 11:01:17;;;;;;;5.30;4.83;;;24.90;99.90;;;;;;5049381;28;20511;-51
2022/08/17 11:03:53;;;;;;;6.17;5.40;;;24.90;99.90;;;;;;5049110;28;20910;-50
2022/08/17 11:06:32;;;;;;;6.77;5.67;;;25.00;99.90;;;;;;5049965;28;20524;-52
2022/08/17 11:09:19;;;;;;;7.53;5.63;;;25.30;99.90;;;;;;5049847;28;20446;-49
2022/08/17 11:12:11;;;;;;;6.03;5.40;;;25.20;99.90;;;;;;5050004;28;20509;-52
2022/08/17 11:14:53;;;;;;;6.17;5.60;;;25.30;99.90;;;;;;5049089;28;20434;-49
2022/08/17 11:17:49;;;;;;;5.23;4.83;;;25.50;99.90;;;;;;5049962;28;20449;-50
2022/08/17 11:20:55;;;;;;;5.70;5.20;;;25.40;99.90;;;;;;5049651;28;20476;-49
2022/08/17 11:23:54;;;;;;;6.77;5.90;;;25.40;99.90;;;;;;5050179;28;20865;-49
2022/08/17 11:26:26;;;;;;;6.30;5.60;;;25.40;99.90;;;;;;5049162;28;20546;-52
2022/08/17 11:28:58;;;;;;;5.97;5.40;;;25.50;99.90;;;;;;5049657;28;20449;-49
2022/08/17 11:31:31;;;;;;;5.73;5.00;;;25.60;99.90;;;;;;5049566;28;20472;-49
2022/08/17 11:34:03;;;;;;;7.60;4.60;;;25.70;99.90;;;;;;5049514;28;20460;-50
2022/08/17 11:37:09;;;;;;;8.73;4.93;;;25.70;99.90;;;;;;5049629;28;20444;-53
2022/08/17 11:40:04;;;;;;;5.73;5.23;;;25.90;99.90;;;;;;5049437;28;20453;-49
2022/08/17 11:42:49;;;;;;;5.73;4.30;;;25.90;99.90;;;;;;5049578;28;20430;-50
2022/08/17 11:45:37;;;;;;;5.50;5.03;;;25.80;99.90;;;;;;5049544;28;20499;-49
2022/08/17 11:54:31;;;;;;;5.33;4.83;;;26.30;99.90;;;;;;4968236;28;20524;-51
2022/08/17 11:57:21;;;;;;;5.50;5.07;;;26.50;99.90;;;;;;5042323;28;20533;-50
2022/08/17 11:59:57;;;;;;;5.27;4.77;;;26.60;99.90;;;;;;5049107;28;20488;-50
2022/08/17 12:03:10;;;;;;;5.50;4.27;;;26.50;99.90;;;;;;5049765;28;20425;-50
2022/08/17 12:05:38;;;;;;;7.60;4.77;;;26.50;99.90;;;;;;5013262;28;20699;-49
2022/08/17 12:08:16;;;;;;;4.27;3.87;;;26.50;99.90;;;;;;5049375;28;20434;-49
2022/08/17 12:10:59;;;;;;;5.80;4.63;;;26.30;99.90;;;;;;5048996;28;20534;-49
2022/08/17 12:13:29;;;;;;;4.00;3.70;;;26.40;99.90;;;;;;5049242;28;20912;-50
2022/08/17 12:15:57;;;;;;;5.00;4.50;;;26.50;99.90;;;;;;5049262;28;20499;-50
2022/08/17 12:18:27;;;;;;;5.60;5.10;;;26.70;99.90;;;;;;5048965;28;20491;-49
2022/08/17 12:21:14;;;;;;;5.60;5.10;;;26.90;99.90;;;;;;5048809;28;20492;-49
2022/08/17 12:23:47;;;;;;;7.20;6.50;;;27.30;99.90;;;;;;5049106;28;20437;-53
2022/08/17 12:26:18;;;;;;;5.13;4.70;;;27.20;99.90;;;;;;5051700;28;20507;-50
2022/08/17 12:28:48;;;;;;;4.63;4.20;;;27.10;99.90;;;;;;5052834;28;20448;-50
2022/08/17 12:31:20;;;;;;;5.53;4.63;;;27.30;99.90;;;;;;5052973;28;21048;-51
2022/08/17 12:33:48;;;;;;;4.90;4.30;;;27.00;99.90;;;;;;5052842;28;20445;-50
2022/08/17 12:36:18;;;;;;;5.30;4.80;;;26.80;99.90;;;;;;5053081;28;20437;-50
2022/08/17 12:38:51;;;;;;;5.20;4.70;;;26.90;99.90;;;;;;5052906;28;20446;-55
2022/08/17 12:41:33;;;;;;;5.43;4.63;;;26.90;99.90;;;;;;5052704;28;20497;-51
2022/08/17 12:44:04;;;;;;;5.03;4.00;;;26.90;99.90;;;;;;5052723;28;20487;-49
2022/08/17 12:46:34;;;;;;;5.80;4.60;;;26.80;99.90;;;;;;5052359;28;20539;-50
2022/08/17 12:49:16;;;;;;;7.60;5.80;;;26.50;99.90;;;;;;5052459;28;20445;-51
2022/08/17 12:51:46;;;;;;;5.50;5.00;;;26.20;99.90;;;;;;5052466;28;20536;-49
2022/08/17 12:54:27;;;;;;;45.03;9.00;;;26.10;99.90;;;;;;5052439;28;20429;-52
2022/08/17 12:56:54;;;;;;;13.20;6.53;;;25.90;99.90;;;;;;5052378;28;20463;-51
2022/08/17 12:59:23;;;;;;;5.07;4.60;;;25.90;99.90;;;;;;5052247;28;20434;-52
2022/08/17 13:01:50;;;;;;;5.30;4.43;;;26.40;99.90;;;;;;5052183;28;20970;-49
2022/08/17 13:04:19;;;;;;;6.10;5.53;;;26.10;99.90;;;;;;5052040;28;20437;-51
2022/08/17 13:06:50;;;;;;;5.63;4.47;;;26.20;99.90;;;;;;5052323;28;20469;-50
2022/08/17 13:09:21;;;;;;;6.10;4.87;;;26.20;99.90;;;;;;5052589;28;20453;-50
2022/08/17 13:11:50;;;;;;;4.90;4.50;;;26.30;99.90;;;;;;5052177;28;20475;-52
2022/08/17 13:14:18;;;;;;;7.60;4.63;;;26.60;99.90;;;;;;5052252;28;20454;-49
2022/08/17 13:16:54;;;;;;;64.63;13.50;;;26.50;99.90;;;;;;5052130;28;20446;-50
2022/08/17 13:19:22;;;;;;;28.63;7.93;;;26.40;99.90;;;;;;5051851;28;20449;-50
2022/08/17 13:21:52;;;;;;;37.77;10.70;;;26.30;99.90;;;;;;5051871;28;20968;-49
2022/08/17 13:24:21;;;;;;;23.77;7.07;;;26.10;99.90;;;;;;5052028;28;20483;-51
2022/08/17 13:26:53;;;;;;;17.27;6.00;;;26.10;99.90;;;;;;5051353;28;20465;-49
2022/08/17 13:29:24;;;;;;;6.70;5.43;;;26.00;99.90;;;;;;5051587;28;20461;-49
2022/08/17 13:31:54;;;;;;;6.10;5.33;;;26.10;99.90;;;;;;5051368;28;20525;-51
2022/08/17 13:34:39;;;;;;;6.43;5.83;;;26.00;99.90;;;;;;5051741;28;20842;-51
2022/08/17 13:37:25;;;;;;;5.73;5.23;;;26.20;99.90;;;;;;5050987;28;20441;-50
2022/08/17 13:39:52;;;;;;;5.70;5.20;;;26.60;99.90;;;;;;5051459;28;20437;-51
2022/08/17 13:42:31;;;;;;;8.17;5.80;;;27.00;99.90;;;;;;5051597;28;20510;-49
2022/08/17 13:44:59;;;;;;;6.20;4.97;;;27.30;99.90;;;;;;5051053;28;20896;-49